Terminal Aerodrome Forecast
Issued by NWS

Home | Current Version | Previous Version | Text Only | Print | Product List | Glossary On
Versions: 1 2 3 4 5 6 7 8 9 10 11 12 13 14 15 16 17 18 19 20 21 22 23 24 25 26
000
FTUS45 KGJT 292335
TAFEGE
TAF
KEGE 292335Z 3000/3024 VRB05KT P6SM VCTS SCT050 BKN090CB
      TEMPO 3000/3004 VRB10G20KT TSRA OVC040CB
     FM300600 10004KT P6SM VCSH BKN060 BKN090
     FM301200 VRB03KT P6SM VCSH SCT060 BKN090
     FM302000 27007KT P6SM VCTS SCT060CB BKN100
      AMD LTD TO CLD VIS AND WIND 3001/3013=

USA.gov is the U.S. government's official web portal to all federal, state and local government web resources and services.